OOCL Atlanta — VRAR6 — position and weather

sailwx.info

Track history (hours):
 
Tides and Currents Weather Stations Pressure Air Temp Water Temp Dewpoint Dewpoint Depression Visibility Wind Speed Wind Dir Waves Ship Positions

OOCL Atlanta

Last reported at 2014-Aug-31 05:05 UTC. Time now 2014-Sep-02 04:21 UTC.
Position N 01°16' E 104°10'.

Length 323 m; beam 42.8 m; draft 14.5 m.

Type: Cargo ship. MMSI: 477920300.

Date/timePositionNaut miles runAvg speedWind from/ knotsBaromVisibWave heightAir tempDewpointWater temp
2014-Aug-31 05:05N 01°16' E 104°10'1019.4
2014-Aug-31 04:34N 01°14' E 104°00'9 9.1
2014-Aug-31 03:33N 01°16' E 103°51'0 0.0
2014-Aug-31 02:27N 01°16' E 103°51'0 0.0
2014-Aug-31 01:33N 01°16' E 103°51'0 0.0
2014-Aug-31 00:30N 01°16' E 103°51'0 0.0
2014-Aug-30 23:33N 01°16' E 103°51'0 0.1
2014-Aug-30 22:33N 01°16' E 103°51'0 0.1
2014-Aug-30 21:33N 01°16' E 103°51'0 0.0
2014-Aug-30 20:33N 01°16' E 103°51'0 0.0
2014-Aug-30 19:33N 01°16' E 103°51'0 0.0
2014-Aug-30 18:33N 01°16' E 103°51'0 0.0
2014-Aug-30 17:30N 01°16' E 103°51'0 0.0
2014-Aug-30 16:33N 01°16' E 103°51'0 0.0
2014-Aug-30 15:33N 01°16' E 103°51'0 0.1
2014-Aug-30 14:33N 01°16' E 103°51'0 0.1
2014-Aug-30 13:30N 01°16' E 103°51'0 0.0
2014-Aug-30 12:30N 01°16' E 103°51'0 0.0
2014-Aug-30 11:33N 01°16' E 103°51'0 0.0
2014-Aug-30 10:33N 01°16' E 103°51'0 0.1
2014-Aug-30 09:30N 01°16' E 103°51'0 0.1
2014-Aug-30 08:30N 01°16' E 103°51'0 0.0
2014-Aug-30 07:33N 01°16' E 103°51'0 0.0
2014-Aug-30 06:33N 01°16' E 103°51'0 0.0
2014-Aug-30 05:30N 01°16' E 103°51'0 0.0
2014-Aug-30 04:33N 01°16' E 103°51'0 0.0
2014-Aug-30 03:33N 01°16' E 103°51'0 0.0
2014-Aug-30 02:33N 01°16' E 103°51'0 0.0
2014-Aug-30 01:33N 01°16' E 103°51'0 0.0
2014-Aug-30 00:33N 01°16' E 103°51'0 0.0
2014-Aug-29 23:33N 01°16' E 103°51'0 0.0
2014-Aug-29 22:33N 01°16' E 103°51'0 0.0
2014-Aug-29 21:33N 01°16' E 103°51'0 0.0
2014-Aug-29 20:30N 01°16' E 103°51'0 0.1
2014-Aug-29 19:24N 01°16' E 103°51'0 0.1
2014-Aug-29 18:30N 01°16' E 103°51'0 0.0
2014-Aug-29 17:30N 01°16' E 103°51'0 0.0
2014-Aug-29 16:33N 01°16' E 103°51'0 0.0
2014-Aug-29 15:33N 01°16' E 103°51'0 0.2
2014-Aug-29 14:33N 01°16' E 103°51'4 3.6
2014-Aug-29 13:33N 01°14' E 103°54'6 5.7
2014-Aug-29 12:33N 01°16' E 103°60'  
2014-Aug-25 04:25N 22°20' E 120°02'1719.2
2014-Aug-25 03:33N 22°32' E 120°14'5 3.7
2014-Aug-25 02:15N 22°34' E 120°18'0 0.0
2014-Aug-25 01:27N 22°34' E 120°18'0 0.0
2014-Aug-25 00:33N 22°34' E 120°18'0 0.0
2014-Aug-24 23:33N 22°34' E 120°18'0 0.0
2014-Aug-24 22:21N 22°34' E 120°18'0 0.0
2014-Aug-24 21:33N 22°34' E 120°18'0 0.0
2014-Aug-24 20:21N 22°34' E 120°18'0 0.0
2014-Aug-24 19:27N 22°34' E 120°18'0 0.0
2014-Aug-24 18:21N 22°34' E 120°18'0 0.0
2014-Aug-24 17:33N 22°34' E 120°18'0 0.0
2014-Aug-24 16:27N 22°34' E 120°18'0 0.0
2014-Aug-24 15:33N 22°34' E 120°18'0 0.0
2014-Aug-24 14:33N 22°34' E 120°18'0 0.0
2014-Aug-24 13:33N 22°34' E 120°18'0 0.1
2014-Aug-24 12:33N 22°34' E 120°18'3 2.9
2014-Aug-24 11:33N 22°32' E 120°16'4 4.2
2014-Aug-24 10:33N 22°33' E 120°12'1111.5
2014-Aug-24 09:33N 22°43' E 120°06'1411.6
2014-Aug-24 08:20N 22°56' E 119°60'  
Track history (hours):
 
Tides and Currents Weather Stations Pressure Air Temp Water Temp Dewpoint Dewpoint Depression Visibility Wind Speed Wind Dir Waves Ship Positions

OOCL Atlanta

Last reported at 2014-Aug-31 05:05 UTC. Time now 2014-Sep-02 04:21 UTC.
Position N 01°16' E 104°10'.

Length 323 m; beam 42.8 m; draft 14.5 m.

Type: Cargo ship. MMSI: 477920300.

Date/timePositionNaut miles runAvg speedWind from/ knotsBaromVisibWave heightAir tempDewpointWater temp
2014-Aug-31 05:05N 01°16' E 104°10'1019.4
2014-Aug-31 04:34N 01°14' E 104°00'9 9.1
2014-Aug-31 03:33N 01°16' E 103°51'0 0.0
2014-Aug-31 02:27N 01°16' E 103°51'0 0.0
2014-Aug-31 01:33N 01°16' E 103°51'0 0.0
2014-Aug-31 00:30N 01°16' E 103°51'0 0.0
2014-Aug-30 23:33N 01°16' E 103°51'0 0.1
2014-Aug-30 22:33N 01°16' E 103°51'0 0.1
2014-Aug-30 21:33N 01°16' E 103°51'0 0.0
2014-Aug-30 20:33N 01°16' E 103°51'0 0.0
2014-Aug-30 19:33N 01°16' E 103°51'0 0.0
2014-Aug-30 18:33N 01°16' E 103°51'0 0.0
2014-Aug-30 17:30N 01°16' E 103°51'0 0.0
2014-Aug-30 16:33N 01°16' E 103°51'0 0.0
2014-Aug-30 15:33N 01°16' E 103°51'0 0.1
2014-Aug-30 14:33N 01°16' E 103°51'0 0.1
2014-Aug-30 13:30N 01°16' E 103°51'0 0.0
2014-Aug-30 12:30N 01°16' E 103°51'0 0.0
2014-Aug-30 11:33N 01°16' E 103°51'0 0.0
2014-Aug-30 10:33N 01°16' E 103°51'0 0.1
2014-Aug-30 09:30N 01°16' E 103°51'0 0.1
2014-Aug-30 08:30N 01°16' E 103°51'0 0.0
2014-Aug-30 07:33N 01°16' E 103°51'0 0.0
2014-Aug-30 06:33N 01°16' E 103°51'0 0.0
2014-Aug-30 05:30N 01°16' E 103°51'0 0.0
2014-Aug-30 04:33N 01°16' E 103°51'0 0.0
2014-Aug-30 03:33N 01°16' E 103°51'0 0.0
2014-Aug-30 02:33N 01°16' E 103°51'0 0.0
2014-Aug-30 01:33N 01°16' E 103°51'0 0.0
2014-Aug-30 00:33N 01°16' E 103°51'0 0.0
2014-Aug-29 23:33N 01°16' E 103°51'0 0.0
2014-Aug-29 22:33N 01°16' E 103°51'0 0.0
2014-Aug-29 21:33N 01°16' E 103°51'0 0.0
2014-Aug-29 20:30N 01°16' E 103°51'0 0.1
2014-Aug-29 19:24N 01°16' E 103°51'0 0.1
2014-Aug-29 18:30N 01°16' E 103°51'0 0.0
2014-Aug-29 17:30N 01°16' E 103°51'0 0.0
2014-Aug-29 16:33N 01°16' E 103°51'0 0.0
2014-Aug-29 15:33N 01°16' E 103°51'0 0.2
2014-Aug-29 14:33N 01°16' E 103°51'4 3.6
2014-Aug-29 13:33N 01°14' E 103°54'6 5.7
2014-Aug-29 12:33N 01°16' E 103°60'  
2014-Aug-25 04:25N 22°20' E 120°02'1719.2
2014-Aug-25 03:33N 22°32' E 120°14'5 3.7
2014-Aug-25 02:15N 22°34' E 120°18'0 0.0
2014-Aug-25 01:27N 22°34' E 120°18'0 0.0
2014-Aug-25 00:33N 22°34' E 120°18'0 0.0
2014-Aug-24 23:33N 22°34' E 120°18'0 0.0
2014-Aug-24 22:21N 22°34' E 120°18'0 0.0
2014-Aug-24 21:33N 22°34' E 120°18'0 0.0
2014-Aug-24 20:21N 22°34' E 120°18'0 0.0
2014-Aug-24 19:27N 22°34' E 120°18'0 0.0
2014-Aug-24 18:21N 22°34' E 120°18'0 0.0
2014-Aug-24 17:33N 22°34' E 120°18'0 0.0
2014-Aug-24 16:27N 22°34' E 120°18'0 0.0
2014-Aug-24 15:33N 22°34' E 120°18'0 0.0
2014-Aug-24 14:33N 22°34' E 120°18'0 0.0
2014-Aug-24 13:33N 22°34' E 120°18'0 0.1
2014-Aug-24 12:33N 22°34' E 120°18'3 2.9
2014-Aug-24 11:33N 22°32' E 120°16'4 4.2
2014-Aug-24 10:33N 22°33' E 120°12'1111.5
2014-Aug-24 09:33N 22°43' E 120°06'1411.6
2014-Aug-24 08:20N 22°56' E 119°60'  

Dump ship's entire track history